sensor_id;sensor_type;location;lat;lon;timestamp;temperature;humidity
55721;DHT22;41626;53.098;6.168;2022-08-01T00:02:07;18.20;99.90
55721;DHT22;41626;53.098;6.168;2022-08-01T00:04:33;18.30;99.90
55721;DHT22;41626;53.098;6.168;2022-08-01T00:06:58;18.30;99.90
55721;DHT22;41626;53.098;6.168;2022-08-01T00:09:24;18.50;99.90
55721;DHT22;41626;53.098;6.168;2022-08-01T00:11:50;18.20;99.90
55721;DHT22;41626;53.098;6.168;2022-08-01T00:14:15;18.10;99.90
55721;DHT22;41626;53.098;6.168;2022-08-01T00:16:41;18.40;99.90
55721;DHT22;41626;53.098;6.168;2022-08-01T00:19:07;18.20;99.90
55721;DHT22;41626;53.098;6.168;2022-08-01T00:21:32;18.40;99.90
55721;DHT22;41626;53.098;6.168;2022-08-01T00:23:58;18.00;99.90
55721;DHT22;41626;53.098;6.168;2022-08-01T00:26:24;18.40;99.90
55721;DHT22;41626;53.098;6.168;2022-08-01T00:28:50;18.40;99.90
55721;DHT22;41626;53.098;6.168;2022-08-01T00:31:15;18.30;99.90
55721;DHT22;41626;53.098;6.168;2022-08-01T00:33:41;18.30;99.90
55721;DHT22;41626;53.098;6.168;2022-08-01T00:36:07;18.10;99.90
55721;DHT22;41626;53.098;6.168;2022-08-01T00:38:32;17.90;99.90
55721;DHT22;41626;53.098;6.168;2022-08-01T00:40:58;18.10;99.90
55721;DHT22;41626;53.098;6.168;2022-08-01T00:43:24;17.90;99.90
55721;DHT22;41626;53.098;6.168;2022-08-01T00:45:50;18.40;99.90
55721;DHT22;41626;53.098;6.168;2022-08-01T00:48:15;17.90;99.90
55721;DHT22;41626;53.098;6.168;2022-08-01T00:50:41;18.10;99.90
55721;DHT22;41626;53.098;6.168;2022-08-01T00:53:07;18.20;99.90
55721;DHT22;41626;53.098;6.168;2022-08-01T00:55:33;17.90;99.90
55721;DHT22;41626;53.098;6.168;2022-08-01T00:57:58;18.10;99.90
55721;DHT22;41626;53.098;6.168;2022-08-01T01:00:25;18.20;99.90
55721;DHT22;41626;53.098;6.168;2022-08-01T01:02:51;18.20;99.90
55721;DHT22;41626;53.098;6.168;2022-08-01T01:05:17;17.90;99.90
55721;DHT22;41626;53.098;6.168;2022-08-01T01:08:07;17.80;99.90
55721;DHT22;41626;53.098;6.168;2022-08-01T01:10:54;18.20;99.90
55721;DHT22;41626;53.098;6.168;2022-08-01T01:15:59;17.90;99.90
55721;DHT22;41626;53.098;6.168;2022-08-01T01:18:30;17.90;99.90
55721;DHT22;41626;53.098;6.168;2022-08-01T01:24:03;17.70;99.90
55721;DHT22;41626;53.098;6.168;2022-08-01T01:29:27;17.60;99.90
55721;DHT22;41626;53.098;6.168;2022-08-01T01:32:10;17.60;99.90
55721;DHT22;41626;53.098;6.168;2022-08-01T01:34:40;17.80;99.90
55721;DHT22;41626;53.098;6.168;2022-08-01T01:37:12;17.60;99.90
55721;DHT22;41626;53.098;6.168;2022-08-01T01:39:41;17.70;99.90
55721;DHT22;41626;53.098;6.168;2022-08-01T01:42:07;17.60;99.90
55721;DHT22;41626;53.098;6.168;2022-08-01T01:44:34;17.40;99.90
55721;DHT22;41626;53.098;6.168;2022-08-01T01:47:00;17.40;99.90
55721;DHT22;41626;53.098;6.168;2022-08-01T01:49:27;17.40;99.90
55721;DHT22;41626;53.098;6.168;2022-08-01T01:51:55;17.30;99.90
55721;DHT22;41626;53.098;6.168;2022-08-01T01:54:23;17.40;99.90
55721;DHT22;41626;53.098;6.168;2022-08-01T01:56:51;17.40;99.90
55721;DHT22;41626;53.098;6.168;2022-08-01T01:59:20;17.60;99.90
55721;DHT22;41626;53.098;6.168;2022-08-01T02:01:50;17.50;99.90
55721;DHT22;41626;53.098;6.168;2022-08-01T02:04:16;17.30;99.90
55721;DHT22;41626;53.098;6.168;2022-08-01T02:06:44;17.60;99.90
55721;DHT22;41626;53.098;6.168;2022-08-01T02:09:11;17.30;99.90
55721;DHT22;41626;53.098;6.168;2022-08-01T02:11:40;17.40;99.90
55721;DHT22;41626;53.098;6.168;2022-08-01T02:14:07;17.20;99.90
55721;DHT22;41626;53.098;6.168;2022-08-01T02:16:39;17.40;99.90
55721;DHT22;41626;53.098;6.168;2022-08-01T02:19:06;17.50;99.90
55721;DHT22;41626;53.098;6.168;2022-08-01T02:21:56;17.10;99.90
55721;DHT22;41626;53.098;6.168;2022-08-01T02:26:53;17.50;99.90
55721;DHT22;41626;53.098;6.168;2022-08-01T02:29:27;17.40;99.90
55721;DHT22;41626;53.098;6.168;2022-08-01T02:31:55;17.30;99.90
55721;DHT22;41626;53.098;6.168;2022-08-01T02:34:24;17.40;99.90
55721;DHT22;41626;53.098;6.168;2022-08-01T02:36:56;17.30;99.90
55721;DHT22;41626;53.098;6.168;2022-08-01T02:39:22;17.30;99.90
55721;DHT22;41626;53.098;6.168;2022-08-01T02:41:57;17.00;99.90
55721;DHT22;41626;53.098;6.168;2022-08-01T02:44:24;17.30;99.90
55721;DHT22;41626;53.098;6.168;2022-08-01T02:46:56;17.00;99.90
55721;DHT22;41626;53.098;6.168;2022-08-01T02:49:24;17.30;99.90
55721;DHT22;41626;53.098;6.168;2022-08-01T02:51:53;17.00;99.90
55721;DHT22;41626;53.098;6.168;2022-08-01T02:54:21;17.20;99.90
55721;DHT22;41626;53.098;6.168;2022-08-01T02:56:48;17.10;99.90
55721;DHT22;41626;53.098;6.168;2022-08-01T02:59:18;17.10;99.90
55721;DHT22;41626;53.098;6.168;2022-08-01T03:01:48;17.00;99.90
55721;DHT22;41626;53.098;6.168;2022-08-01T03:04:14;16.80;99.90
55721;DHT22;41626;53.098;6.168;2022-08-01T03:06:43;16.90;99.90
55721;DHT22;41626;53.098;6.168;2022-08-01T03:09:10;16.80;99.90
55721;DHT22;41626;53.098;6.168;2022-08-01T03:11:38;16.90;99.90
55721;DHT22;41626;53.098;6.168;2022-08-01T03:14:06;17.00;99.90
55721;DHT22;41626;53.098;6.168;2022-08-01T03:16:35;17.00;99.90
55721;DHT22;41626;53.098;6.168;2022-08-01T03:19:03;16.90;99.90
55721;DHT22;41626;53.098;6.168;2022-08-01T03:21:31;16.80;99.90
55721;DHT22;41626;53.098;6.168;2022-08-01T03:23:59;17.00;99.90
55721;DHT22;41626;53.098;6.168;2022-08-01T03:26:29;16.80;99.90
55721;DHT22;41626;53.098;6.168;2022-08-01T03:28:59;17.10;99.90
55721;DHT22;41626;53.098;6.168;2022-08-01T03:31:25;17.00;99.90
55721;DHT22;41626;53.098;6.168;2022-08-01T03:33:52;16.80;99.90
55721;DHT22;41626;53.098;6.168;2022-08-01T03:36:21;16.80;99.90
55721;DHT22;41626;53.098;6.168;2022-08-01T03:38:49;16.80;99.90
55721;DHT22;41626;53.098;6.168;2022-08-01T03:41:20;16.70;99.90
55721;DHT22;41626;53.098;6.168;2022-08-01T03:44:03;17.10;99.90
55721;DHT22;41626;53.098;6.168;2022-08-01T03:46:42;16.80;99.90
55721;DHT22;41626;53.098;6.168;2022-08-01T03:49:20;17.00;99.90
55721;DHT22;41626;53.098;6.168;2022-08-01T03:51:49;16.70;99.90
55721;DHT22;41626;53.098;6.168;2022-08-01T03:54:25;16.70;99.90
55721;DHT22;41626;53.098;6.168;2022-08-01T03:56:53;16.90;99.90
55721;DHT22;41626;53.098;6.168;2022-08-01T03:59:20;16.90;99.90
55721;DHT22;41626;53.098;6.168;2022-08-01T04:01:47;16.60;99.90
55721;DHT22;41626;53.098;6.168;2022-08-01T04:04:14;16.60;99.90
55721;DHT22;41626;53.098;6.168;2022-08-01T04:06:40;16.60;99.90
55721;DHT22;41626;53.098;6.168;2022-08-01T04:09:09;16.60;99.90
55721;DHT22;41626;53.098;6.168;2022-08-01T04:11:36;16.60;99.90
55721;DHT22;41626;53.098;6.168;2022-08-01T04:14:02;16.50;99.90
55721;DHT22;41626;53.098;6.168;2022-08-01T04:16:28;16.70;99.90
55721;DHT22;41626;53.098;6.168;2022-08-01T04:18:54;16.70;99.90
55721;DHT22;41626;53.098;6.168;2022-08-01T04:21:23;16.70;99.90
55721;DHT22;41626;53.098;6.168;2022-08-01T04:23:51;16.60;99.90
55721;DHT22;41626;53.098;6.168;2022-08-01T04:26:19;16.40;99.90
55721;DHT22;41626;53.098;6.168;2022-08-01T04:28:46;16.40;99.90
55721;DHT22;41626;53.098;6.168;2022-08-01T04:31:14;16.50;99.90
55721;DHT22;41626;53.098;6.168;2022-08-01T04:33:45;16.60;99.90
55721;DHT22;41626;53.098;6.168;2022-08-01T04:36:12;16.40;99.90
55721;DHT22;41626;53.098;6.168;2022-08-01T04:38:42;16.50;99.90
55721;DHT22;41626;53.098;6.168;2022-08-01T04:41:12;16.50;99.90
55721;DHT22;41626;53.098;6.168;2022-08-01T04:43:38;16.50;99.90
55721;DHT22;41626;53.098;6.168;2022-08-01T04:46:06;16.30;99.90
55721;DHT22;41626;53.098;6.168;2022-08-01T04:48:36;16.40;99.90
55721;DHT22;41626;53.098;6.168;2022-08-01T04:51:02;16.30;99.90
55721;DHT22;41626;53.098;6.168;2022-08-01T04:53:28;16.40;99.90
55721;DHT22;41626;53.098;6.168;2022-08-01T04:55:54;16.40;99.90
55721;DHT22;41626;53.098;6.168;2022-08-01T04:58:19;16.50;99.90
55721;DHT22;41626;53.098;6.168;2022-08-01T05:00:45;16.40;99.90
55721;DHT22;41626;53.098;6.168;2022-08-01T05:03:11;16.40;99.90
55721;DHT22;41626;53.098;6.168;2022-08-01T05:05:37;16.40;99.90
55721;DHT22;41626;53.098;6.168;2022-08-01T05:08:03;16.40;99.90
55721;DHT22;41626;53.098;6.168;2022-08-01T05:10:28;16.40;99.90
55721;DHT22;41626;53.098;6.168;2022-08-01T05:12:54;16.40;99.90
55721;DHT22;41626;53.098;6.168;2022-08-01T05:15:20;16.40;99.90
55721;DHT22;41626;53.098;6.168;2022-08-01T05:17:46;16.30;99.90
55721;DHT22;41626;53.098;6.168;2022-08-01T05:20:12;16.30;99.90
55721;DHT22;41626;53.098;6.168;2022-08-01T05:22:38;16.30;99.90
55721;DHT22;41626;53.098;6.168;2022-08-01T05:25:04;16.40;99.90
55721;DHT22;41626;53.098;6.168;2022-08-01T05:27:31;16.30;99.90
55721;DHT22;41626;53.098;6.168;2022-08-01T05:29:56;16.40;99.90
55721;DHT22;41626;53.098;6.168;2022-08-01T05:32:22;16.30;99.90
55721;DHT22;41626;53.098;6.168;2022-08-01T05:34:48;16.40;99.90
55721;DHT22;41626;53.098;6.168;2022-08-01T05:37:13;16.30;99.90
55721;DHT22;41626;53.098;6.168;2022-08-01T05:39:39;16.50;99.90
55721;DHT22;41626;53.098;6.168;2022-08-01T05:42:05;16.40;99.90
55721;DHT22;41626;53.098;6.168;2022-08-01T05:44:31;16.30;99.90
55721;DHT22;41626;53.098;6.168;2022-08-01T05:46:57;16.30;99.90
55721;DHT22;41626;53.098;6.168;2022-08-01T05:49:23;16.40;99.90
55721;DHT22;41626;53.098;6.168;2022-08-01T05:51:49;16.50;99.90
55721;DHT22;41626;53.098;6.168;2022-08-01T05:54:14;16.40;99.90
55721;DHT22;41626;53.098;6.168;2022-08-01T05:56:40;16.40;99.90
55721;DHT22;41626;53.098;6.168;2022-08-01T05:59:06;16.50;99.90
55721;DHT22;41626;53.098;6.168;2022-08-01T06:01:32;16.40;99.90
55721;DHT22;41626;53.098;6.168;2022-08-01T06:03:57;16.50;99.90
55721;DHT22;41626;53.098;6.168;2022-08-01T06:06:23;16.40;99.90
55721;DHT22;41626;53.098;6.168;2022-08-01T06:08:49;16.50;99.90
55721;DHT22;41626;53.098;6.168;2022-08-01T06:11:15;16.50;99.90
55721;DHT22;41626;53.098;6.168;2022-08-01T06:13:41;16.60;99.90
55721;DHT22;41626;53.098;6.168;2022-08-01T06:16:08;16.40;99.90
55721;DHT22;41626;53.098;6.168;2022-08-01T06:18:33;16.50;99.90
55721;DHT22;41626;53.098;6.168;2022-08-01T06:20:59;16.60;99.90
55721;DHT22;41626;53.098;6.168;2022-08-01T06:23:25;16.70;99.90
55721;DHT22;41626;53.098;6.168;2022-08-01T06:25:54;16.60;99.90
55721;DHT22;41626;53.098;6.168;2022-08-01T06:28:20;16.70;99.90
55721;DHT22;41626;53.098;6.168;2022-08-01T06:30:46;16.70;99.90
55721;DHT22;41626;53.098;6.168;2022-08-01T06:33:12;16.70;99.90
55721;DHT22;41626;53.098;6.168;2022-08-01T06:35:37;16.60;99.90
55721;DHT22;41626;53.098;6.168;2022-08-01T06:38:03;16.80;99.90
55721;DHT22;41626;53.098;6.168;2022-08-01T06:40:29;16.70;99.90
55721;DHT22;41626;53.098;6.168;2022-08-01T06:42:55;16.70;99.90
55721;DHT22;41626;53.098;6.168;2022-08-01T06:45:20;16.90;99.90
55721;DHT22;41626;53.098;6.168;2022-08-01T06:47:48;17.00;99.90
55721;DHT22;41626;53.098;6.168;2022-08-01T06:50:14;17.00;99.90
55721;DHT22;41626;53.098;6.168;2022-08-01T06:52:40;16.90;99.90
55721;DHT22;41626;53.098;6.168;2022-08-01T06:55:07;16.70;99.90
55721;DHT22;41626;53.098;6.168;2022-08-01T06:57:33;16.80;99.90
55721;DHT22;41626;53.098;6.168;2022-08-01T07:00:03;16.80;99.90
55721;DHT22;41626;53.098;6.168;2022-08-01T07:02:29;16.90;99.90
55721;DHT22;41626;53.098;6.168;2022-08-01T07:04:54;17.00;99.90
55721;DHT22;41626;53.098;6.168;2022-08-01T07:07:20;17.10;99.90
55721;DHT22;41626;53.098;6.168;2022-08-01T07:09:45;17.40;99.90
55721;DHT22;41626;53.098;6.168;2022-08-01T07:12:11;17.50;99.90
55721;DHT22;41626;53.098;6.168;2022-08-01T07:14:37;17.50;99.90
55721;DHT22;41626;53.098;6.168;2022-08-01T07:17:02;17.70;99.90
55721;DHT22;41626;53.098;6.168;2022-08-01T07:19:28;17.70;99.90
55721;DHT22;41626;53.098;6.168;2022-08-01T07:21:53;17.50;99.90
55721;DHT22;41626;53.098;6.168;2022-08-01T07:24:19;17.40;99.90
55721;DHT22;41626;53.098;6.168;2022-08-01T07:26:47;17.70;99.90
55721;DHT22;41626;53.098;6.168;2022-08-01T07:29:13;18.00;99.90
55721;DHT22;41626;53.098;6.168;2022-08-01T07:31:40;18.90;99.90
55721;DHT22;41626;53.098;6.168;2022-08-01T07:34:05;18.90;99.90
55721;DHT22;41626;53.098;6.168;2022-08-01T07:36:31;18.30;99.90
55721;DHT22;41626;53.098;6.168;2022-08-01T07:38:57;17.70;99.90
55721;DHT22;41626;53.098;6.168;2022-08-01T07:41:23;17.60;99.90
55721;DHT22;41626;53.098;6.168;2022-08-01T07:43:48;17.50;99.90
55721;DHT22;41626;53.098;6.168;2022-08-01T07:46:15;17.50;99.90
55721;DHT22;41626;53.098;6.168;2022-08-01T07:48:41;17.50;99.90
55721;DHT22;41626;53.098;6.168;2022-08-01T07:51:06;17.70;99.90
55721;DHT22;41626;53.098;6.168;2022-08-01T07:53:33;17.90;99.90
55721;DHT22;41626;53.098;6.168;2022-08-01T07:55:59;18.00;99.90
55721;DHT22;41626;53.098;6.168;2022-08-01T07:58:25;18.30;99.90
55721;DHT22;41626;53.098;6.168;2022-08-01T08:00:50;18.20;99.90
55721;DHT22;41626;53.098;6.168;2022-08-01T08:03:16;18.30;99.90
55721;DHT22;41626;53.098;6.168;2022-08-01T08:05:42;18.60;99.90
55721;DHT22;41626;53.098;6.168;2022-08-01T08:08:08;18.50;99.90
55721;DHT22;41626;53.098;6.168;2022-08-01T08:10:35;18.50;99.90
55721;DHT22;41626;53.098;6.168;2022-08-01T08:13:02;18.60;99.90
55721;DHT22;41626;53.098;6.168;2022-08-01T08:15:28;18.70;99.90
55721;DHT22;41626;53.098;6.168;2022-08-01T08:17:54;18.70;99.90
55721;DHT22;41626;53.098;6.168;2022-08-01T08:20:20;18.80;99.90
55721;DHT22;41626;53.098;6.168;2022-08-01T08:22:50;18.70;99.90
55721;DHT22;41626;53.098;6.168;2022-08-01T08:25:17;18.80;99.90
55721;DHT22;41626;53.098;6.168;2022-08-01T08:27:45;18.80;99.90
55721;DHT22;41626;53.098;6.168;2022-08-01T08:30:11;18.50;99.90
55721;DHT22;41626;53.098;6.168;2022-08-01T08:32:37;18.70;99.90
55721;DHT22;41626;53.098;6.168;2022-08-01T08:35:04;18.50;99.90
55721;DHT22;41626;53.098;6.168;2022-08-01T08:37:30;18.80;99.90
55721;DHT22;41626;53.098;6.168;2022-08-01T08:39:56;18.80;99.90
55721;DHT22;41626;53.098;6.168;2022-08-01T08:42:22;18.90;99.90
55721;DHT22;41626;53.098;6.168;2022-08-01T08:44:48;18.90;99.90
55721;DHT22;41626;53.098;6.168;2022-08-01T08:47:14;18.90;99.90
55721;DHT22;41626;53.098;6.168;2022-08-01T08:49:43;19.10;99.90
55721;DHT22;41626;53.098;6.168;2022-08-01T08:52:10;19.50;99.90
55721;DHT22;41626;53.098;6.168;2022-08-01T08:54:37;19.00;99.90
55721;DHT22;41626;53.098;6.168;2022-08-01T08:57:04;18.90;99.90
55721;DHT22;41626;53.098;6.168;2022-08-01T08:59:31;18.90;99.90
55721;DHT22;41626;53.098;6.168;2022-08-01T09:01:57;18.90;99.90
55721;DHT22;41626;53.098;6.168;2022-08-01T09:04:24;18.50;99.90
55721;DHT22;41626;53.098;6.168;2022-08-01T09:06:51;18.90;99.90
55721;DHT22;41626;53.098;6.168;2022-08-01T09:09:17;18.90;99.90
55721;DHT22;41626;53.098;6.168;2022-08-01T09:11:43;18.90;99.90
55721;DHT22;41626;53.098;6.168;2022-08-01T09:14:17;19.10;99.90
55721;DHT22;41626;53.098;6.168;2022-08-01T09:17:07;19.20;99.90
55721;DHT22;41626;53.098;6.168;2022-08-01T09:22:15;19.50;99.90
55721;DHT22;41626;53.098;6.168;2022-08-01T09:25:06;19.60;99.90
55721;DHT22;41626;53.098;6.168;2022-08-01T09:27:33;19.50;99.90
55721;DHT22;41626;53.098;6.168;2022-08-01T09:33:00;19.20;99.90
55721;DHT22;41626;53.098;6.168;2022-08-01T09:35:32;19.10;99.90
55721;DHT22;41626;53.098;6.168;2022-08-01T09:38:20;19.10;99.90
55721;DHT22;41626;53.098;6.168;2022-08-01T09:40:59;18.90;99.90
55721;DHT22;41626;53.098;6.168;2022-08-01T09:43:27;18.90;99.90
55721;DHT22;41626;53.098;6.168;2022-08-01T09:45:55;19.40;99.90
55721;DHT22;41626;53.098;6.168;2022-08-01T09:48:21;19.50;99.90
55721;DHT22;41626;53.098;6.168;2022-08-01T09:50:49;19.60;99.90
55721;DHT22;41626;53.098;6.168;2022-08-01T09:53:16;19.20;99.90
55721;DHT22;41626;53.098;6.168;2022-08-01T09:55:42;19.10;99.90
55721;DHT22;41626;53.098;6.168;2022-08-01T09:58:08;19.40;99.90
55721;DHT22;41626;53.098;6.168;2022-08-01T10:00:36;19.60;99.90
55721;DHT22;41626;53.098;6.168;2022-08-01T10:03:22;19.30;99.90
55721;DHT22;41626;53.098;6.168;2022-08-01T10:05:48;19.00;99.90
55721;DHT22;41626;53.098;6.168;2022-08-01T10:08:14;19.00;99.90
55721;DHT22;41626;53.098;6.168;2022-08-01T10:10:40;19.20;99.90
55721;DHT22;41626;53.098;6.168;2022-08-01T10:13:06;19.30;99.90
55721;DHT22;41626;53.098;6.168;2022-08-01T10:15:33;19.40;99.90
55721;DHT22;41626;53.098;6.168;2022-08-01T10:18:02;19.40;99.90
55721;DHT22;41626;53.098;6.168;2022-08-01T10:20:32;19.20;99.90
55721;DHT22;41626;53.098;6.168;2022-08-01T10:22:59;19.00;99.90
55721;DHT22;41626;53.098;6.168;2022-08-01T10:25:27;19.20;99.90
55721;DHT22;41626;53.098;6.168;2022-08-01T10:27:54;19.50;99.90
55721;DHT22;41626;53.098;6.168;2022-08-01T10:30:23;19.40;99.90
55721;DHT22;41626;53.098;6.168;2022-08-01T10:32:50;19.80;99.90
55721;DHT22;41626;53.098;6.168;2022-08-01T10:35:18;19.50;99.90
55721;DHT22;41626;53.098;6.168;2022-08-01T10:37:45;19.50;99.90
55721;DHT22;41626;53.098;6.168;2022-08-01T10:40:14;19.00;99.90
55721;DHT22;41626;53.098;6.168;2022-08-01T10:42:42;19.20;99.90
55721;DHT22;41626;53.098;6.168;2022-08-01T10:45:09;19.30;99.90
55721;DHT22;41626;53.098;6.168;2022-08-01T10:53:15;19.70;99.90
55721;DHT22;41626;53.098;6.168;2022-08-01T10:58:29;19.80;99.90
55721;DHT22;41626;53.098;6.168;2022-08-01T11:08:58;19.90;99.90
55721;DHT22;41626;53.098;6.168;2022-08-01T11:11:25;19.60;99.90
55721;DHT22;41626;53.098;6.168;2022-08-01T11:16:28;19.90;99.90
55721;DHT22;41626;53.098;6.168;2022-08-01T11:18:54;19.80;99.90
55721;DHT22;41626;53.098;6.168;2022-08-01T11:21:20;19.30;99.90
55721;DHT22;41626;53.098;6.168;2022-08-01T11:23:50;19.70;99.90
55721;DHT22;41626;53.098;6.168;2022-08-01T11:26:20;20.10;99.90
55721;DHT22;41626;53.098;6.168;2022-08-01T11:29:16;19.90;99.90
55721;DHT22;41626;53.098;6.168;2022-08-01T11:31:42;20.00;99.90
55721;DHT22;41626;53.098;6.168;2022-08-01T11:34:08;20.10;99.90
55721;DHT22;41626;53.098;6.168;2022-08-01T11:36:34;20.10;99.90
55721;DHT22;41626;53.098;6.168;2022-08-01T11:41:33;20.00;99.90
55721;DHT22;41626;53.098;6.168;2022-08-01T11:44:02;20.10;99.90
55721;DHT22;41626;53.098;6.168;2022-08-01T11:47:04;19.90;99.90
55721;DHT22;41626;53.098;6.168;2022-08-01T11:54:38;19.90;99.90
55721;DHT22;41626;53.098;6.168;2022-08-01T11:57:18;19.60;99.90
55721;DHT22;41626;53.098;6.168;2022-08-01T12:02:31;19.90;99.90
55721;DHT22;41626;53.098;6.168;2022-08-01T12:07:26;19.80;99.90
55721;DHT22;41626;53.098;6.168;2022-08-01T12:10:16;19.80;99.90
55721;DHT22;41626;53.098;6.168;2022-08-01T12:13:01;20.00;99.90
55721;DHT22;41626;53.098;6.168;2022-08-01T12:15:45;19.70;99.90
55721;DHT22;41626;53.098;6.168;2022-08-01T12:18:11;19.70;99.90
55721;DHT22;41626;53.098;6.168;2022-08-01T12:20:43;19.50;99.90
55721;DHT22;41626;53.098;6.168;2022-08-01T12:23:14;19.80;99.90
55721;DHT22;41626;53.098;6.168;2022-08-01T12:25:41;20.00;99.90
55721;DHT22;41626;53.098;6.168;2022-08-01T12:28:11;20.00;99.90
55721;DHT22;41626;53.098;6.168;2022-08-01T12:30:39;20.10;99.90
55721;DHT22;41626;53.098;6.168;2022-08-01T12:33:07;20.20;99.90
55721;DHT22;41626;53.098;6.168;2022-08-01T12:35:38;20.00;99.90
55721;DHT22;41626;53.098;6.168;2022-08-01T12:38:05;20.20;99.90
55721;DHT22;41626;53.098;6.168;2022-08-01T12:40:33;19.90;99.90
55721;DHT22;41626;53.098;6.168;2022-08-01T12:43:01;20.10;99.90
55721;DHT22;41626;53.098;6.168;2022-08-01T12:47:56;20.30;99.90
55721;DHT22;41626;53.098;6.168;2022-08-01T12:50:28;20.60;99.90
55721;DHT22;41626;53.098;6.168;2022-08-01T12:52:55;20.50;99.90
55721;DHT22;41626;53.098;6.168;2022-08-01T12:55:24;20.60;99.90
55721;DHT22;41626;53.098;6.168;2022-08-01T13:00:29;20.70;99.90
55721;DHT22;41626;53.098;6.168;2022-08-01T13:03:07;20.40;99.90
55721;DHT22;41626;53.098;6.168;2022-08-01T13:05:51;20.60;99.90
55721;DHT22;41626;53.098;6.168;2022-08-01T13:08:19;20.40;99.90
55721;DHT22;41626;53.098;6.168;2022-08-01T13:10:45;20.30;99.90
55721;DHT22;41626;53.098;6.168;2022-08-01T13:13:11;19.80;99.90
55721;DHT22;41626;53.098;6.168;2022-08-01T13:15:39;19.80;99.90
55721;DHT22;41626;53.098;6.168;2022-08-01T13:18:34;20.10;99.90
55721;DHT22;41626;53.098;6.168;2022-08-01T13:21:20;20.20;99.90
55721;DHT22;41626;53.098;6.168;2022-08-01T13:24:12;20.10;99.90
55721;DHT22;41626;53.098;6.168;2022-08-01T13:26:43;20.60;99.90
55721;DHT22;41626;53.098;6.168;2022-08-01T13:29:10;20.60;99.90
55721;DHT22;41626;53.098;6.168;2022-08-01T13:31:37;20.50;99.90
55721;DHT22;41626;53.098;6.168;2022-08-01T13:34:03;20.70;99.90
55721;DHT22;41626;53.098;6.168;2022-08-01T13:36:29;20.70;99.90
55721;DHT22;41626;53.098;6.168;2022-08-01T13:38:56;20.70;99.90
55721;DHT22;41626;53.098;6.168;2022-08-01T13:41:41;20.40;99.90
55721;DHT22;41626;53.098;6.168;2022-08-01T13:44:07;20.60;99.90
55721;DHT22;41626;53.098;6.168;2022-08-01T13:46:34;20.60;99.90
55721;DHT22;41626;53.098;6.168;2022-08-01T13:49:01;20.30;99.90
55721;DHT22;41626;53.098;6.168;2022-08-01T13:51:27;20.20;99.90
55721;DHT22;41626;53.098;6.168;2022-08-01T13:53:53;20.10;99.90
55721;DHT22;41626;53.098;6.168;2022-08-01T13:56:18;20.20;99.90
55721;DHT22;41626;53.098;6.168;2022-08-01T13:58:45;20.50;99.90
55721;DHT22;41626;53.098;6.168;2022-08-01T14:01:11;20.40;99.90
55721;DHT22;41626;53.098;6.168;2022-08-01T14:03:37;19.90;99.90
55721;DHT22;41626;53.098;6.168;2022-08-01T14:06:04;20.10;99.90
55721;DHT22;41626;53.098;6.168;2022-08-01T14:08:30;20.00;99.90
55721;DHT22;41626;53.098;6.168;2022-08-01T14:10:56;20.00;99.90
55721;DHT22;41626;53.098;6.168;2022-08-01T14:13:28;20.00;99.90
55721;DHT22;41626;53.098;6.168;2022-08-01T14:15:54;20.10;99.90
55721;DHT22;41626;53.098;6.168;2022-08-01T14:18:19;20.00;99.90
55721;DHT22;41626;53.098;6.168;2022-08-01T14:20:46;20.40;99.90
55721;DHT22;41626;53.098;6.168;2022-08-01T14:23:11;20.50;99.90
55721;DHT22;41626;53.098;6.168;2022-08-01T14:25:38;20.40;99.90
55721;DHT22;41626;53.098;6.168;2022-08-01T14:28:04;20.30;99.90
55721;DHT22;41626;53.098;6.168;2022-08-01T14:30:31;20.50;99.90
55721;DHT22;41626;53.098;6.168;2022-08-01T14:32:57;20.40;99.90
55721;DHT22;41626;53.098;6.168;2022-08-01T14:35:23;20.50;99.90
55721;DHT22;41626;53.098;6.168;2022-08-01T14:37:49;20.40;99.90
55721;DHT22;41626;53.098;6.168;2022-08-01T14:40:15;20.70;99.90
55721;DHT22;41626;53.098;6.168;2022-08-01T14:42:41;20.40;99.90
55721;DHT22;41626;53.098;6.168;2022-08-01T14:45:09;20.60;99.90
55721;DHT22;41626;53.098;6.168;2022-08-01T14:47:36;20.70;99.90
55721;DHT22;41626;53.098;6.168;2022-08-01T14:50:03;20.60;99.90
55721;DHT22;41626;53.098;6.168;2022-08-01T14:52:29;20.60;99.90
55721;DHT22;41626;53.098;6.168;2022-08-01T14:54:55;20.50;99.90
55721;DHT22;41626;53.098;6.168;2022-08-01T14:57:21;20.20;99.90
55721;DHT22;41626;53.098;6.168;2022-08-01T14:59:46;20.20;99.90
55721;DHT22;41626;53.098;6.168;2022-08-01T15:02:12;20.20;99.90
55721;DHT22;41626;53.098;6.168;2022-08-01T15:04:45;20.20;99.90
55721;DHT22;41626;53.098;6.168;2022-08-01T15:07:11;20.30;99.90
55721;DHT22;41626;53.098;6.168;2022-08-01T15:09:40;20.20;99.90
55721;DHT22;41626;53.098;6.168;2022-08-01T15:12:06;20.10;99.90
55721;DHT22;41626;53.098;6.168;2022-08-01T15:14:32;20.10;99.90
55721;DHT22;41626;53.098;6.168;2022-08-01T15:19:47;20.20;99.90
55721;DHT22;41626;53.098;6.168;2022-08-01T15:22:13;20.20;99.90
55721;DHT22;41626;53.098;6.168;2022-08-01T15:24:39;20.10;99.90
55721;DHT22;41626;53.098;6.168;2022-08-01T15:27:05;20.00;99.90
55721;DHT22;41626;53.098;6.168;2022-08-01T15:29:31;20.00;99.90
55721;DHT22;41626;53.098;6.168;2022-08-01T15:31:58;20.00;99.90
55721;DHT22;41626;53.098;6.168;2022-08-01T15:34:24;20.20;99.90
55721;DHT22;41626;53.098;6.168;2022-08-01T15:36:51;20.20;99.90
55721;DHT22;41626;53.098;6.168;2022-08-01T15:39:16;20.20;99.90
55721;DHT22;41626;53.098;6.168;2022-08-01T15:41:42;20.30;99.90
55721;DHT22;41626;53.098;6.168;2022-08-01T15:44:08;20.20;99.90
55721;DHT22;41626;53.098;6.168;2022-08-01T15:46:33;20.00;99.90
55721;DHT22;41626;53.098;6.168;2022-08-01T15:49:06;20.00;99.90
55721;DHT22;41626;53.098;6.168;2022-08-01T15:51:32;19.80;99.90
55721;DHT22;41626;53.098;6.168;2022-08-01T15:53:59;19.90;99.90
55721;DHT22;41626;53.098;6.168;2022-08-01T15:56:29;20.00;99.90
55721;DHT22;41626;53.098;6.168;2022-08-01T15:58:55;19.90;99.90
55721;DHT22;41626;53.098;6.168;2022-08-01T16:01:21;20.00;99.90
55721;DHT22;41626;53.098;6.168;2022-08-01T16:03:47;20.00;99.90
55721;DHT22;41626;53.098;6.168;2022-08-01T16:06:13;20.00;99.90
55721;DHT22;41626;53.098;6.168;2022-08-01T16:08:38;19.80;99.90
55721;DHT22;41626;53.098;6.168;2022-08-01T16:11:07;19.80;99.90
55721;DHT22;41626;53.098;6.168;2022-08-01T16:13:35;19.80;99.90
55721;DHT22;41626;53.098;6.168;2022-08-01T16:16:00;19.80;99.90
55721;DHT22;41626;53.098;6.168;2022-08-01T16:18:27;19.70;99.90
55721;DHT22;41626;53.098;6.168;2022-08-01T16:20:53;19.80;99.90
55721;DHT22;41626;53.098;6.168;2022-08-01T16:23:19;19.90;99.90
55721;DHT22;41626;53.098;6.168;2022-08-01T16:25:44;19.70;99.90
55721;DHT22;41626;53.098;6.168;2022-08-01T16:28:10;19.60;99.90
55721;DHT22;41626;53.098;6.168;2022-08-01T16:30:37;19.70;99.90
55721;DHT22;41626;53.098;6.168;2022-08-01T16:33:03;19.60;99.90